sensor_id;sensor_type;location;lat;lon;timestamp;P1;durP1;ratioP1;P2;durP2;ratioP2
15096;SDS011;7649;52.084;7.478;2024-01-30T00:00:39;10.53;;;9.43;;
15096;SDS011;7649;52.084;7.478;2024-01-30T00:03:08;11.10;;;9.27;;
15096;SDS011;7649;52.084;7.478;2024-01-30T00:05:36;11.50;;;9.53;;
15096;SDS011;7649;52.084;7.478;2024-01-30T00:08:05;11.40;;;9.27;;
15096;SDS011;7649;52.084;7.478;2024-01-30T00:10:34;9.93;;;8.90;;
15096;SDS011;7649;52.084;7.478;2024-01-30T00:13:02;10.80;;;9.70;;
15096;SDS011;7649;52.084;7.478;2024-01-30T00:15:32;11.37;;;9.33;;
15096;SDS011;7649;52.084;7.478;2024-01-30T00:18:01;12.00;;;9.53;;
15096;SDS011;7649;52.084;7.478;2024-01-30T00:20:30;11.03;;;9.00;;
15096;SDS011;7649;52.084;7.478;2024-01-30T00:22:58;11.40;;;9.30;;
15096;SDS011;7649;52.084;7.478;2024-01-30T00:25:28;11.23;;;10.03;;
15096;SDS011;7649;52.084;7.478;2024-01-30T00:27:56;11.70;;;9.50;;
15096;SDS011;7649;52.084;7.478;2024-01-30T00:30:25;10.47;;;9.10;;
15096;SDS011;7649;52.084;7.478;2024-01-30T00:32:55;10.70;;;9.20;;
15096;SDS011;7649;52.084;7.478;2024-01-30T00:35:23;12.80;;;9.40;;
15096;SDS011;7649;52.084;7.478;2024-01-30T00:37:52;12.50;;;9.87;;
15096;SDS011;7649;52.084;7.478;2024-01-30T00:40:20;11.37;;;9.53;;
15096;SDS011;7649;52.084;7.478;2024-01-30T00:42:50;13.30;;;9.50;;
15096;SDS011;7649;52.084;7.478;2024-01-30T00:45:18;13.57;;;9.47;;
15096;SDS011;7649;52.084;7.478;2024-01-30T00:47:47;10.63;;;9.30;;
15096;SDS011;7649;52.084;7.478;2024-01-30T00:50:17;13.30;;;9.50;;
15096;SDS011;7649;52.084;7.478;2024-01-30T00:52:46;12.40;;;9.23;;
15096;SDS011;7649;52.084;7.478;2024-01-30T00:55:14;10.97;;;9.87;;
15096;SDS011;7649;52.084;7.478;2024-01-30T00:57:43;11.10;;;9.37;;
15096;SDS011;7649;52.084;7.478;2024-01-30T01:00:12;9.57;;;8.50;;
15096;SDS011;7649;52.084;7.478;2024-01-30T01:02:43;10.60;;;9.13;;
15096;SDS011;7649;52.084;7.478;2024-01-30T01:05:11;11.57;;;9.63;;
15096;SDS011;7649;52.084;7.478;2024-01-30T01:07:41;11.77;;;9.57;;
15096;SDS011;7649;52.084;7.478;2024-01-30T01:10:10;12.07;;;10.03;;
15096;SDS011;7649;52.084;7.478;2024-01-30T01:12:40;10.97;;;9.03;;
15096;SDS011;7649;52.084;7.478;2024-01-30T01:15:08;10.73;;;9.00;;
15096;SDS011;7649;52.084;7.478;2024-01-30T01:17:37;10.60;;;8.80;;
15096;SDS011;7649;52.084;7.478;2024-01-30T01:20:06;9.73;;;8.73;;
15096;SDS011;7649;52.084;7.478;2024-01-30T01:25:06;10.13;;;9.03;;
15096;SDS011;7649;52.084;7.478;2024-01-30T01:27:36;10.57;;;8.70;;
15096;SDS011;7649;52.084;7.478;2024-01-30T01:30:08;9.83;;;8.83;;
15096;SDS011;7649;52.084;7.478;2024-01-30T01:32:38;11.17;;;8.67;;
15096;SDS011;7649;52.084;7.478;2024-01-30T01:35:11;10.97;;;9.20;;
15096;SDS011;7649;52.084;7.478;2024-01-30T01:37:40;9.43;;;8.47;;
15096;SDS011;7649;52.084;7.478;2024-01-30T01:40:10;9.87;;;8.53;;
15096;SDS011;7649;52.084;7.478;2024-01-30T01:42:38;10.07;;;8.80;;
15096;SDS011;7649;52.084;7.478;2024-01-30T01:45:07;9.90;;;8.83;;
15096;SDS011;7649;52.084;7.478;2024-01-30T01:47:35;11.33;;;9.10;;
15096;SDS011;7649;52.084;7.478;2024-01-30T01:50:04;11.67;;;9.10;;
15096;SDS011;7649;52.084;7.478;2024-01-30T01:52:33;11.13;;;9.30;;
15096;SDS011;7649;52.084;7.478;2024-01-30T01:55:01;10.60;;;9.33;;
15096;SDS011;7649;52.084;7.478;2024-01-30T01:57:31;10.53;;;9.37;;
15096;SDS011;7649;52.084;7.478;2024-01-30T01:59:59;10.27;;;9.27;;
15096;SDS011;7649;52.084;7.478;2024-01-30T02:02:28;11.53;;;8.70;;
15096;SDS011;7649;52.084;7.478;2024-01-30T02:04:58;9.77;;;8.77;;
15096;SDS011;7649;52.084;7.478;2024-01-30T02:07:27;11.03;;;8.80;;
15096;SDS011;7649;52.084;7.478;2024-01-30T02:09:55;11.30;;;8.93;;
15096;SDS011;7649;52.084;7.478;2024-01-30T02:12:24;12.27;;;9.20;;
15096;SDS011;7649;52.084;7.478;2024-01-30T02:14:53;10.23;;;9.13;;
15096;SDS011;7649;52.084;7.478;2024-01-30T02:17:22;11.60;;;9.07;;
15096;SDS011;7649;52.084;7.478;2024-01-30T02:19:50;11.23;;;9.37;;
15096;SDS011;7649;52.084;7.478;2024-01-30T02:22:20;11.47;;;8.70;;
15096;SDS011;7649;52.084;7.478;2024-01-30T02:24:49;10.63;;;8.73;;
15096;SDS011;7649;52.084;7.478;2024-01-30T02:27:17;11.93;;;9.87;;
15096;SDS011;7649;52.084;7.478;2024-01-30T02:29:46;11.40;;;9.70;;
15096;SDS011;7649;52.084;7.478;2024-01-30T02:32:14;10.67;;;9.57;;
15096;SDS011;7649;52.084;7.478;2024-01-30T02:34:43;10.40;;;9.37;;
15096;SDS011;7649;52.084;7.478;2024-01-30T02:37:11;12.13;;;9.57;;
15096;SDS011;7649;52.084;7.478;2024-01-30T02:39:41;10.53;;;9.43;;
15096;SDS011;7649;52.084;7.478;2024-01-30T02:42:09;11.57;;;9.50;;
15096;SDS011;7649;52.084;7.478;2024-01-30T02:44:37;11.57;;;9.37;;
15096;SDS011;7649;52.084;7.478;2024-01-30T02:47:06;11.27;;;8.93;;
15096;SDS011;7649;52.084;7.478;2024-01-30T02:49:34;10.43;;;9.40;;
15096;SDS011;7649;52.084;7.478;2024-01-30T02:52:03;12.17;;;9.10;;
15096;SDS011;7649;52.084;7.478;2024-01-30T02:54:31;11.53;;;8.83;;
15096;SDS011;7649;52.084;7.478;2024-01-30T02:57:01;10.70;;;9.60;;
15096;SDS011;7649;52.084;7.478;2024-01-30T02:59:29;9.53;;;8.50;;
15096;SDS011;7649;52.084;7.478;2024-01-30T03:01:59;11.93;;;9.37;;
15096;SDS011;7649;52.084;7.478;2024-01-30T03:04:28;13.83;;;9.10;;
15096;SDS011;7649;52.084;7.478;2024-01-30T03:06:57;11.87;;;9.47;;
15096;SDS011;7649;52.084;7.478;2024-01-30T03:09:25;9.60;;;8.60;;
15096;SDS011;7649;52.084;7.478;2024-01-30T03:11:53;9.97;;;8.97;;
15096;SDS011;7649;52.084;7.478;2024-01-30T03:14:23;11.23;;;9.77;;
15096;SDS011;7649;52.084;7.478;2024-01-30T03:16:52;12.17;;;9.30;;
15096;SDS011;7649;52.084;7.478;2024-01-30T03:19:20;10.33;;;9.30;;
15096;SDS011;7649;52.084;7.478;2024-01-30T03:21:48;9.90;;;8.90;;
15096;SDS011;7649;52.084;7.478;2024-01-30T03:24:17;10.90;;;9.27;;
15096;SDS011;7649;52.084;7.478;2024-01-30T03:26:45;11.63;;;9.20;;
15096;SDS011;7649;52.084;7.478;2024-01-30T03:29:13;11.17;;;9.57;;
15096;SDS011;7649;52.084;7.478;2024-01-30T03:31:43;10.93;;;9.40;;
15096;SDS011;7649;52.084;7.478;2024-01-30T03:34:12;10.80;;;9.00;;
15096;SDS011;7649;52.084;7.478;2024-01-30T03:36:40;12.87;;;9.60;;
15096;SDS011;7649;52.084;7.478;2024-01-30T03:39:08;12.47;;;10.37;;
15096;SDS011;7649;52.084;7.478;2024-01-30T03:41:37;10.80;;;9.63;;
15096;SDS011;7649;52.084;7.478;2024-01-30T03:44:06;11.53;;;10.17;;
15096;SDS011;7649;52.084;7.478;2024-01-30T03:46:34;11.97;;;10.00;;
15096;SDS011;7649;52.084;7.478;2024-01-30T03:49:03;12.13;;;10.07;;
15096;SDS011;7649;52.084;7.478;2024-01-30T03:51:32;14.57;;;10.00;;
15096;SDS011;7649;52.084;7.478;2024-01-30T03:54:00;12.50;;;9.77;;
15096;SDS011;7649;52.084;7.478;2024-01-30T03:56:28;13.33;;;9.70;;
15096;SDS011;7649;52.084;7.478;2024-01-30T03:58:57;11.67;;;10.23;;
15096;SDS011;7649;52.084;7.478;2024-01-30T04:01:27;14.40;;;10.10;;
15096;SDS011;7649;52.084;7.478;2024-01-30T04:03:55;13.23;;;9.90;;
15096;SDS011;7649;52.084;7.478;2024-01-30T04:06:25;14.33;;;9.80;;
15096;SDS011;7649;52.084;7.478;2024-01-30T04:08:54;11.87;;;10.67;;
15096;SDS011;7649;52.084;7.478;2024-01-30T04:11:22;13.00;;;10.30;;
15096;SDS011;7649;52.084;7.478;2024-01-30T04:13:51;14.63;;;10.47;;
15096;SDS011;7649;52.084;7.478;2024-01-30T04:16:19;12.93;;;9.47;;
15096;SDS011;7649;52.084;7.478;2024-01-30T04:18:49;12.80;;;10.53;;
15096;SDS011;7649;52.084;7.478;2024-01-30T04:21:17;12.23;;;10.03;;
15096;SDS011;7649;52.084;7.478;2024-01-30T04:23:47;12.73;;;10.63;;
15096;SDS011;7649;52.084;7.478;2024-01-30T04:26:16;11.93;;;10.67;;
15096;SDS011;7649;52.084;7.478;2024-01-30T04:28:44;13.40;;;10.90;;
15096;SDS011;7649;52.084;7.478;2024-01-30T04:31:13;13.33;;;10.40;;
15096;SDS011;7649;52.084;7.478;2024-01-30T04:33:41;13.00;;;9.77;;
15096;SDS011;7649;52.084;7.478;2024-01-30T04:36:09;10.50;;;9.30;;
15096;SDS011;7649;52.084;7.478;2024-01-30T04:38:38;13.70;;;10.07;;
15096;SDS011;7649;52.084;7.478;2024-01-30T04:41:08;12.00;;;10.43;;
15096;SDS011;7649;52.084;7.478;2024-01-30T04:43:36;14.63;;;10.57;;
15096;SDS011;7649;52.084;7.478;2024-01-30T04:46:04;13.40;;;10.70;;
15096;SDS011;7649;52.084;7.478;2024-01-30T04:48:33;12.43;;;10.20;;
15096;SDS011;7649;52.084;7.478;2024-01-30T04:51:01;14.47;;;10.47;;
15096;SDS011;7649;52.084;7.478;2024-01-30T04:53:30;12.60;;;10.40;;
15096;SDS011;7649;52.084;7.478;2024-01-30T04:55:59;13.33;;;10.97;;
15096;SDS011;7649;52.084;7.478;2024-01-30T04:58:29;12.87;;;10.27;;
15096;SDS011;7649;52.084;7.478;2024-01-30T05:00:57;12.33;;;11.03;;
15096;SDS011;7649;52.084;7.478;2024-01-30T05:03:25;13.73;;;10.33;;
15096;SDS011;7649;52.084;7.478;2024-01-30T05:05:54;14.60;;;11.00;;
15096;SDS011;7649;52.084;7.478;2024-01-30T05:08:22;13.07;;;10.60;;
15096;SDS011;7649;52.084;7.478;2024-01-30T05:10:50;13.57;;;11.00;;
15096;SDS011;7649;52.084;7.478;2024-01-30T05:13:19;12.43;;;10.43;;
15096;SDS011;7649;52.084;7.478;2024-01-30T05:15:49;13.97;;;10.43;;
15096;SDS011;7649;52.084;7.478;2024-01-30T05:18:17;12.13;;;9.97;;
15096;SDS011;7649;52.084;7.478;2024-01-30T05:20:45;14.00;;;11.27;;
15096;SDS011;7649;52.084;7.478;2024-01-30T05:23:14;12.33;;;10.70;;
15096;SDS011;7649;52.084;7.478;2024-01-30T05:25:42;12.77;;;10.03;;
15096;SDS011;7649;52.084;7.478;2024-01-30T05:28:11;13.73;;;11.30;;
15096;SDS011;7649;52.084;7.478;2024-01-30T05:30:39;12.10;;;10.40;;
15096;SDS011;7649;52.084;7.478;2024-01-30T05:33:09;12.00;;;10.10;;
15096;SDS011;7649;52.084;7.478;2024-01-30T05:35:38;13.53;;;10.60;;
15096;SDS011;7649;52.084;7.478;2024-01-30T05:38:06;11.17;;;9.70;;
15096;SDS011;7649;52.084;7.478;2024-01-30T05:40:35;13.07;;;10.40;;
15096;SDS011;7649;52.084;7.478;2024-01-30T05:43:03;13.70;;;10.90;;
15096;SDS011;7649;52.084;7.478;2024-01-30T05:45:31;12.70;;;10.77;;
15096;SDS011;7649;52.084;7.478;2024-01-30T05:48:01;11.33;;;10.10;;
15096;SDS011;7649;52.084;7.478;2024-01-30T05:50:31;13.63;;;10.73;;
15096;SDS011;7649;52.084;7.478;2024-01-30T05:52:59;12.30;;;10.77;;
15096;SDS011;7649;52.084;7.478;2024-01-30T05:55:28;11.70;;;10.03;;
15096;SDS011;7649;52.084;7.478;2024-01-30T05:57:56;15.20;;;11.27;;
15096;SDS011;7649;52.084;7.478;2024-01-30T06:00:24;15.60;;;12.23;;
15096;SDS011;7649;52.084;7.478;2024-01-30T06:02:53;21.03;;;13.37;;
15096;SDS011;7649;52.084;7.478;2024-01-30T06:05:21;18.83;;;14.93;;
15096;SDS011;7649;52.084;7.478;2024-01-30T06:07:51;12.67;;;10.47;;
15096;SDS011;7649;52.084;7.478;2024-01-30T06:10:19;18.17;;;14.07;;
15096;SDS011;7649;52.084;7.478;2024-01-30T06:12:48;22.50;;;18.43;;
15096;SDS011;7649;52.084;7.478;2024-01-30T06:15:16;18.53;;;14.43;;
15096;SDS011;7649;52.084;7.478;2024-01-30T06:17:45;12.90;;;11.13;;
15096;SDS011;7649;52.084;7.478;2024-01-30T06:20:13;12.67;;;11.33;;
15096;SDS011;7649;52.084;7.478;2024-01-30T06:22:42;16.80;;;13.90;;
15096;SDS011;7649;52.084;7.478;2024-01-30T06:25:12;19.57;;;14.70;;
15096;SDS011;7649;52.084;7.478;2024-01-30T06:27:40;18.03;;;15.43;;
15096;SDS011;7649;52.084;7.478;2024-01-30T06:30:09;18.70;;;16.43;;
15096;SDS011;7649;52.084;7.478;2024-01-30T06:32:37;18.10;;;14.37;;
15096;SDS011;7649;52.084;7.478;2024-01-30T06:35:06;13.43;;;11.20;;
15096;SDS011;7649;52.084;7.478;2024-01-30T06:37:36;17.87;;;13.77;;
15096;SDS011;7649;52.084;7.478;2024-01-30T06:40:05;14.53;;;11.20;;
15096;SDS011;7649;52.084;7.478;2024-01-30T06:42:36;14.20;;;11.03;;
15096;SDS011;7649;52.084;7.478;2024-01-30T06:45:04;13.30;;;10.57;;
15096;SDS011;7649;52.084;7.478;2024-01-30T06:47:34;13.57;;;11.47;;
15096;SDS011;7649;52.084;7.478;2024-01-30T06:50:02;16.70;;;12.07;;
15096;SDS011;7649;52.084;7.478;2024-01-30T06:52:33;12.83;;;11.23;;
15096;SDS011;7649;52.084;7.478;2024-01-30T06:55:02;12.40;;;10.87;;
15096;SDS011;7649;52.084;7.478;2024-01-30T06:57:30;13.37;;;10.60;;
15096;SDS011;7649;52.084;7.478;2024-01-30T07:00:00;13.30;;;10.17;;
15096;SDS011;7649;52.084;7.478;2024-01-30T07:02:28;12.87;;;10.63;;
15096;SDS011;7649;52.084;7.478;2024-01-30T07:04:56;13.80;;;10.67;;
15096;SDS011;7649;52.084;7.478;2024-01-30T07:07:24;11.63;;;9.67;;
15096;SDS011;7649;52.084;7.478;2024-01-30T07:09:53;10.43;;;9.33;;
15096;SDS011;7649;52.084;7.478;2024-01-30T07:12:23;12.40;;;10.87;;
15096;SDS011;7649;52.084;7.478;2024-01-30T07:14:52;13.13;;;9.83;;
15096;SDS011;7649;52.084;7.478;2024-01-30T07:17:24;11.20;;;10.00;;
15096;SDS011;7649;52.084;7.478;2024-01-30T07:19:54;12.90;;;10.93;;
15096;SDS011;7649;52.084;7.478;2024-01-30T07:22:23;18.90;;;12.87;;
15096;SDS011;7649;52.084;7.478;2024-01-30T07:24:51;17.17;;;14.07;;
15096;SDS011;7649;52.084;7.478;2024-01-30T07:27:20;15.03;;;11.40;;
15096;SDS011;7649;52.084;7.478;2024-01-30T07:29:48;12.57;;;11.13;;
15096;SDS011;7649;52.084;7.478;2024-01-30T07:32:16;13.03;;;10.97;;
15096;SDS011;7649;52.084;7.478;2024-01-30T07:34:47;20.13;;;14.07;;
15096;SDS011;7649;52.084;7.478;2024-01-30T07:37:32;14.57;;;11.73;;
15096;SDS011;7649;52.084;7.478;2024-01-30T07:40:01;54.00;;;36.13;;
15096;SDS011;7649;52.084;7.478;2024-01-30T07:42:30;49.83;;;37.20;;
15096;SDS011;7649;52.084;7.478;2024-01-30T07:44:59;36.97;;;28.30;;
15096;SDS011;7649;52.084;7.478;2024-01-30T07:47:28;20.13;;;15.70;;
15096;SDS011;7649;52.084;7.478;2024-01-30T07:49:58;17.13;;;15.07;;
15096;SDS011;7649;52.084;7.478;2024-01-30T07:52:29;16.40;;;13.40;;
15096;SDS011;7649;52.084;7.478;2024-01-30T07:54:58;16.43;;;12.10;;
15096;SDS011;7649;52.084;7.478;2024-01-30T07:57:26;16.33;;;14.30;;
15096;SDS011;7649;52.084;7.478;2024-01-30T07:59:55;13.33;;;11.70;;
15096;SDS011;7649;52.084;7.478;2024-01-30T08:02:23;14.43;;;10.67;;
15096;SDS011;7649;52.084;7.478;2024-01-30T08:04:52;13.30;;;11.40;;
15096;SDS011;7649;52.084;7.478;2024-01-30T08:07:22;11.33;;;10.23;;
15096;SDS011;7649;52.084;7.478;2024-01-30T08:09:51;13.23;;;9.43;;
15096;SDS011;7649;52.084;7.478;2024-01-30T08:12:19;9.73;;;8.67;;
15096;SDS011;7649;52.084;7.478;2024-01-30T08:14:47;10.83;;;8.70;;
15096;SDS011;7649;52.084;7.478;2024-01-30T08:17:16;11.07;;;8.87;;
15096;SDS011;7649;52.084;7.478;2024-01-30T08:19:44;10.73;;;8.63;;
15096;SDS011;7649;52.084;7.478;2024-01-30T08:22:13;12.40;;;9.23;;
15096;SDS011;7649;52.084;7.478;2024-01-30T08:24:42;10.90;;;9.37;;
15096;SDS011;7649;52.084;7.478;2024-01-30T08:27:11;11.77;;;9.30;;
15096;SDS011;7649;52.084;7.478;2024-01-30T08:29:39;12.90;;;8.93;;
15096;SDS011;7649;52.084;7.478;2024-01-30T08:32:07;11.27;;;8.63;;
15096;SDS011;7649;52.084;7.478;2024-01-30T08:34:36;10.13;;;8.30;;
15096;SDS011;7649;52.084;7.478;2024-01-30T08:37:04;11.70;;;8.37;;
15096;SDS011;7649;52.084;7.478;2024-01-30T08:39:33;9.13;;;7.87;;
15096;SDS011;7649;52.084;7.478;2024-01-30T08:42:03;10.40;;;8.23;;
15096;SDS011;7649;52.084;7.478;2024-01-30T08:44:32;10.77;;;8.07;;
15096;SDS011;7649;52.084;7.478;2024-01-30T08:47:00;11.87;;;8.00;;
15096;SDS011;7649;52.084;7.478;2024-01-30T08:49:29;9.17;;;8.10;;
15096;SDS011;7649;52.084;7.478;2024-01-30T08:52:00;9.87;;;8.50;;
15096;SDS011;7649;52.084;7.478;2024-01-30T08:54:31;9.83;;;8.50;;
15096;SDS011;7649;52.084;7.478;2024-01-30T08:57:02;11.70;;;8.10;;
15096;SDS011;7649;52.084;7.478;2024-01-30T08:59:33;11.37;;;8.20;;
15096;SDS011;7649;52.084;7.478;2024-01-30T09:02:01;9.53;;;7.93;;
15096;SDS011;7649;52.084;7.478;2024-01-30T09:04:38;10.57;;;7.60;;
15096;SDS011;7649;52.084;7.478;2024-01-30T09:07:08;10.07;;;8.53;;
15096;SDS011;7649;52.084;7.478;2024-01-30T09:09:37;11.27;;;7.80;;
15096;SDS011;7649;52.084;7.478;2024-01-30T09:12:08;8.47;;;7.37;;
15096;SDS011;7649;52.084;7.478;2024-01-30T09:14:38;9.87;;;7.43;;
15096;SDS011;7649;52.084;7.478;2024-01-30T09:17:07;9.00;;;7.40;;
15096;SDS011;7649;52.084;7.478;2024-01-30T09:19:35;9.47;;;7.60;;
15096;SDS011;7649;52.084;7.478;2024-01-30T09:22:04;8.87;;;7.00;;
15096;SDS011;7649;52.084;7.478;2024-01-30T09:24:33;11.53;;;7.27;;
15096;SDS011;7649;52.084;7.478;2024-01-30T09:27:01;10.30;;;7.57;;
15096;SDS011;7649;52.084;7.478;2024-01-30T09:29:31;9.27;;;7.37;;
15096;SDS011;7649;52.084;7.478;2024-01-30T09:32:00;9.07;;;7.40;;
15096;SDS011;7649;52.084;7.478;2024-01-30T09:34:28;9.37;;;7.43;;
15096;SDS011;7649;52.084;7.478;2024-01-30T09:36:58;20.40;;;8.37;;
15096;SDS011;7649;52.084;7.478;2024-01-30T09:39:26;9.97;;;7.00;;
15096;SDS011;7649;52.084;7.478;2024-01-30T09:41:55;13.40;;;7.70;;
15096;SDS011;7649;52.084;7.478;2024-01-30T09:44:28;8.53;;;6.67;;
15096;SDS011;7649;52.084;7.478;2024-01-30T09:46:59;9.63;;;7.73;;
15096;SDS011;7649;52.084;7.478;2024-01-30T09:49:30;11.70;;;7.60;;
15096;SDS011;7649;52.084;7.478;2024-01-30T09:52:00;11.47;;;7.07;;
15096;SDS011;7649;52.084;7.478;2024-01-30T09:54:29;12.87;;;7.47;;
15096;SDS011;7649;52.084;7.478;2024-01-30T09:57:02;12.07;;;7.90;;
15096;SDS011;7649;52.084;7.478;2024-01-30T09:59:31;9.40;;;7.10;;
15096;SDS011;7649;52.084;7.478;2024-01-30T10:02:00;8.50;;;7.60;;
15096;SDS011;7649;52.084;7.478;2024-01-30T10:04:30;8.47;;;6.80;;
15096;SDS011;7649;52.084;7.478;2024-01-30T10:07:01;9.73;;;6.90;;
15096;SDS011;7649;52.084;7.478;2024-01-30T10:09:31;10.03;;;7.23;;
15096;SDS011;7649;52.084;7.478;2024-01-30T10:12:01;11.23;;;7.10;;
15096;SDS011;7649;52.084;7.478;2024-01-30T10:14:31;10.57;;;7.10;;
15096;SDS011;7649;52.084;7.478;2024-01-30T10:17:00;9.07;;;7.17;;
15096;SDS011;7649;52.084;7.478;2024-01-30T10:19:37;7.87;;;6.60;;
15096;SDS011;7649;52.084;7.478;2024-01-30T10:22:06;9.67;;;6.40;;
15096;SDS011;7649;52.084;7.478;2024-01-30T10:24:34;8.37;;;6.43;;
15096;SDS011;7649;52.084;7.478;2024-01-30T10:27:03;9.20;;;6.17;;
15096;SDS011;7649;52.084;7.478;2024-01-30T10:29:33;7.33;;;6.07;;
15096;SDS011;7649;52.084;7.478;2024-01-30T10:32:03;8.63;;;6.10;;
15096;SDS011;7649;52.084;7.478;2024-01-30T10:34:32;9.57;;;6.40;;
15096;SDS011;7649;52.084;7.478;2024-01-30T10:37:05;10.63;;;6.50;;
15096;SDS011;7649;52.084;7.478;2024-01-30T10:39:39;10.37;;;6.33;;
15096;SDS011;7649;52.084;7.478;2024-01-30T10:42:10;9.20;;;6.60;;
15096;SDS011;7649;52.084;7.478;2024-01-30T10:44:43;7.43;;;6.10;;
15096;SDS011;7649;52.084;7.478;2024-01-30T10:47:13;10.50;;;6.60;;
15096;SDS011;7649;52.084;7.478;2024-01-30T10:49:45;11.63;;;6.30;;
15096;SDS011;7649;52.084;7.478;2024-01-30T10:52:14;8.70;;;6.20;;
15096;SDS011;7649;52.084;7.478;2024-01-30T10:54:43;9.80;;;6.50;;
15096;SDS011;7649;52.084;7.478;2024-01-30T10:57:12;8.17;;;6.57;;
15096;SDS011;7649;52.084;7.478;2024-01-30T10:59:41;8.90;;;6.40;;
15096;SDS011;7649;52.084;7.478;2024-01-30T11:02:10;9.37;;;5.80;;
15096;SDS011;7649;52.084;7.478;2024-01-30T11:04:40;6.87;;;6.17;;
15096;SDS011;7649;52.084;7.478;2024-01-30T11:07:15;9.80;;;6.53;;
15096;SDS011;7649;52.084;7.478;2024-01-30T11:09:49;7.33;;;6.50;;
15096;SDS011;7649;52.084;7.478;2024-01-30T11:12:21;10.57;;;6.33;;
15096;SDS011;7649;52.084;7.478;2024-01-30T11:14:50;10.07;;;6.50;;
15096;SDS011;7649;52.084;7.478;2024-01-30T11:17:39;8.50;;;6.40;;
15096;SDS011;7649;52.084;7.478;2024-01-30T11:20:10;10.07;;;6.30;;
15096;SDS011;7649;52.084;7.478;2024-01-30T11:22:41;24.77;;;8.80;;
15096;SDS011;7649;52.084;7.478;2024-01-30T11:25:11;9.97;;;6.60;;
15096;SDS011;7649;52.084;7.478;2024-01-30T11:27:41;10.60;;;6.13;;
15096;SDS011;7649;52.084;7.478;2024-01-30T11:30:09;7.97;;;6.23;;
15096;SDS011;7649;52.084;7.478;2024-01-30T11:32:38;8.23;;;6.40;;
15096;SDS011;7649;52.084;7.478;2024-01-30T11:35:07;12.20;;;6.87;;
15096;SDS011;7649;52.084;7.478;2024-01-30T11:37:39;8.43;;;6.70;;
15096;SDS011;7649;52.084;7.478;2024-01-30T11:40:07;9.93;;;6.60;;
15096;SDS011;7649;52.084;7.478;2024-01-30T11:42:36;9.67;;;6.90;;
15096;SDS011;7649;52.084;7.478;2024-01-30T11:45:06;32.37;;;8.53;;
15096;SDS011;7649;52.084;7.478;2024-01-30T11:47:35;9.37;;;6.60;;
15096;SDS011;7649;52.084;7.478;2024-01-30T11:50:09;11.37;;;6.87;;
15096;SDS011;7649;52.084;7.478;2024-01-30T11:52:39;10.47;;;6.50;;
15096;SDS011;7649;52.084;7.478;2024-01-30T11:55:08;9.13;;;6.47;;
15096;SDS011;7649;52.084;7.478;2024-01-30T11:57:36;9.83;;;7.27;;
15096;SDS011;7649;52.084;7.478;2024-01-30T12:00:05;9.83;;;6.77;;
15096;SDS011;7649;52.084;7.478;2024-01-30T12:02:36;17.20;;;7.07;;
15096;SDS011;7649;52.084;7.478;2024-01-30T12:05:05;13.13;;;6.57;;
15096;SDS011;7649;52.084;7.478;2024-01-30T12:07:34;7.83;;;6.23;;
15096;SDS011;7649;52.084;7.478;2024-01-30T12:10:05;8.33;;;6.37;;
15096;SDS011;7649;52.084;7.478;2024-01-30T12:12:36;8.97;;;6.57;;
15096;SDS011;7649;52.084;7.478;2024-01-30T12:15:05;9.40;;;6.50;;
15096;SDS011;7649;52.084;7.478;2024-01-30T12:17:33;8.57;;;6.47;;
15096;SDS011;7649;52.084;7.478;2024-01-30T12:20:02;8.60;;;6.60;;
15096;SDS011;7649;52.084;7.478;2024-01-30T12:22:33;11.53;;;6.30;;
15096;SDS011;7649;52.084;7.478;2024-01-30T12:25:07;9.90;;;6.90;;
15096;SDS011;7649;52.084;7.478;2024-01-30T12:27:36;12.97;;;7.03;;
15096;SDS011;7649;52.084;7.478;2024-01-30T12:30:05;12.93;;;7.37;;
15096;SDS011;7649;52.084;7.478;2024-01-30T12:32:34;16.53;;;8.73;;
15096;SDS011;7649;52.084;7.478;2024-01-30T12:35:03;13.10;;;7.80;;
15096;SDS011;7649;52.084;7.478;2024-01-30T12:37:35;11.00;;;6.93;;
15096;SDS011;7649;52.084;7.478;2024-01-30T12:40:04;8.13;;;6.90;;
15096;SDS011;7649;52.084;7.478;2024-01-30T12:42:34;9.40;;;7.20;;
15096;SDS011;7649;52.084;7.478;2024-01-30T12:45:03;10.07;;;7.07;;
15096;SDS011;7649;52.084;7.478;2024-01-30T12:47:32;11.70;;;7.33;;
15096;SDS011;7649;52.084;7.478;2024-01-30T12:50:00;12.93;;;7.43;;
15096;SDS011;7649;52.084;7.478;2024-01-30T12:52:29;12.23;;;7.73;;
15096;SDS011;7649;52.084;7.478;2024-01-30T12:54:58;11.73;;;7.93;;
15096;SDS011;7649;52.084;7.478;2024-01-30T12:57:26;11.63;;;7.97;;
15096;SDS011;7649;52.084;7.478;2024-01-30T12:59:56;12.27;;;7.37;;
15096;SDS011;7649;52.084;7.478;2024-01-30T13:02:24;10.10;;;7.40;;
15096;SDS011;7649;52.084;7.478;2024-01-30T13:05:02;11.43;;;7.40;;
15096;SDS011;7649;52.084;7.478;2024-01-30T13:07:31;11.37;;;6.73;;
15096;SDS011;7649;52.084;7.478;2024-01-30T13:10:00;13.20;;;7.97;;
15096;SDS011;7649;52.084;7.478;2024-01-30T13:12:30;8.13;;;6.60;;
15096;SDS011;7649;52.084;7.478;2024-01-30T13:15:02;11.70;;;6.87;;
15096;SDS011;7649;52.084;7.478;2024-01-30T13:17:31;10.97;;;6.87;;
15096;SDS011;7649;52.084;7.478;2024-01-30T13:19:59;9.57;;;6.13;;
15096;SDS011;7649;52.084;7.478;2024-01-30T13:22:36;9.87;;;6.50;;
15096;SDS011;7649;52.084;7.478;2024-01-30T13:25:06;10.57;;;6.60;;
15096;SDS011;7649;52.084;7.478;2024-01-30T13:27:36;8.60;;;6.50;;
15096;SDS011;7649;52.084;7.478;2024-01-30T13:33:01;12.73;;;7.40;;
15096;SDS011;7649;52.084;7.478;2024-01-30T13:35:38;9.47;;;7.50;;
15096;SDS011;7649;52.084;7.478;2024-01-30T13:38:07;11.23;;;7.37;;
15096;SDS011;7649;52.084;7.478;2024-01-30T13:40:35;9.77;;;7.13;;
15096;SDS011;7649;52.084;7.478;2024-01-30T13:43:04;9.83;;;7.43;;
15096;SDS011;7649;52.084;7.478;2024-01-30T13:45:32;8.33;;;6.87;;
15096;SDS011;7649;52.084;7.478;2024-01-30T13:48:03;9.97;;;6.67;;
15096;SDS011;7649;52.084;7.478;2024-01-30T13:50:32;11.10;;;7.23;;
15096;SDS011;7649;52.084;7.478;2024-01-30T13:55:29;11.50;;;7.43;;
15096;SDS011;7649;52.084;7.478;2024-01-30T13:58:01;13.67;;;7.20;;
15096;SDS011;7649;52.084;7.478;2024-01-30T14:00:30;12.63;;;7.40;;
15096;SDS011;7649;52.084;7.478;2024-01-30T14:03:00;11.17;;;7.27;;
15096;SDS011;7649;52.084;7.478;2024-01-30T14:05:31;20.60;;;7.67;;
15096;SDS011;7649;52.084;7.478;2024-01-30T14:08:00;9.57;;;7.57;;
15096;SDS011;7649;52.084;7.478;2024-01-30T14:10:29;10.03;;;7.13;;
15096;SDS011;7649;52.084;7.478;2024-01-30T14:12:57;9.77;;;6.73;;
15096;SDS011;7649;52.084;7.478;2024-01-30T14:15:26;8.87;;;7.27;;
15096;SDS011;7649;52.084;7.478;2024-01-30T14:17:57;9.73;;;7.20;;
15096;SDS011;7649;52.084;7.478;2024-01-30T14:20:26;10.27;;;6.87;;
15096;SDS011;7649;52.084;7.478;2024-01-30T14:22:57;8.67;;;7.50;;
15096;SDS011;7649;52.084;7.478;2024-01-30T14:25:25;13.50;;;7.27;;
15096;SDS011;7649;52.084;7.478;2024-01-30T14:27:54;9.37;;;7.70;;
15096;SDS011;7649;52.084;7.478;2024-01-30T14:30:22;9.17;;;7.07;;
15096;SDS011;7649;52.084;7.478;2024-01-30T14:32:51;10.43;;;7.07;;
15096;SDS011;7649;52.084;7.478;2024-01-30T14:35:19;9.70;;;6.97;;
15096;SDS011;7649;52.084;7.478;2024-01-30T14:37:48;11.87;;;7.30;;
15096;SDS011;7649;52.084;7.478;2024-01-30T14:40:18;10.27;;;7.70;;
15096;SDS011;7649;52.084;7.478;2024-01-30T14:42:48;11.20;;;6.80;;
15096;SDS011;7649;52.084;7.478;2024-01-30T14:45:17;8.63;;;6.97;;
15096;SDS011;7649;52.084;7.478;2024-01-30T14:47:45;9.93;;;7.03;;
15096;SDS011;7649;52.084;7.478;2024-01-30T14:50:14;10.47;;;7.47;;
15096;SDS011;7649;52.084;7.478;2024-01-30T14:52:43;9.70;;;7.10;;
15096;SDS011;7649;52.084;7.478;2024-01-30T14:55:12;11.20;;;7.67;;
15096;SDS011;7649;52.084;7.478;2024-01-30T14:57:42;8.60;;;6.80;;
15096;SDS011;7649;52.084;7.478;2024-01-30T15:00:13;9.60;;;7.13;;
15096;SDS011;7649;52.084;7.478;2024-01-30T15:02:43;12.63;;;7.27;;
15096;SDS011;7649;52.084;7.478;2024-01-30T15:05:13;11.10;;;7.03;;
15096;SDS011;7649;52.084;7.478;2024-01-30T15:07:42;11.33;;;6.97;;